TimeCST,TemperatureF,Dew PointF,Humidity,Sea Level PressureIn,VisibilityMPH,Wind Direction,Wind SpeedMPH,Gust SpeedMPH,PrecipitationIn,Events,Conditions,WindDirDegrees,DateUTC
12:53 AM,45.0,42.1,90,29.86,10.0,NW,16.1,20.7,N/A,,Overcast,320,2011-12-15 06:53:00
1:53 AM,41.0,37.0,86,29.90,9.0,NW,17.3,24.2,N/A,,Overcast,310,2011-12-15 07:53:00
2:51 AM,37.4,33.8,87,29.95,10.0,NW,11.5,20.7,N/A,,Mostly Cloudy,320,2011-12-15 08:51:00
2:53 AM,37.9,34.0,86,29.95,10.0,NNW,11.5,20.7,N/A,,Scattered Clouds,330,2011-12-15 08:53:00
3:53 AM,36.0,32.0,86,29.99,10.0,WNW,11.5,-,N/A,,Partly Cloudy,300,2011-12-15 09:53:00
4:53 AM,34.0,30.9,89,30.02,10.0,WNW,10.4,18.4,N/A,,Clear,300,2011-12-15 10:53:00
5:53 AM,33.8,30.2,87,30.06,9.0,WNW,10.4,-,N/A,,Clear,290,2011-12-15 11:53:00
6:53 AM,33.1,28.9,85,30.09,10.0,NW,15.0,20.7,N/A,,Partly Cloudy,320,2011-12-15 12:53:00
7:53 AM,33.8,28.4,81,30.11,10.0,NW,19.6,26.5,N/A,,Mostly Cloudy,320,2011-12-15 13:53:00
8:53 AM,34.0,27.0,75,30.17,10.0,NW,16.1,25.3,N/A,,Mostly Cloudy,320,2011-12-15 14:53:00
9:53 AM,33.1,24.1,70,30.21,9.0,NNW,18.4,28.8,N/A,,Mostly Cloudy,330,2011-12-15 15:53:00
10:53 AM,35.1,25.0,67,30.22,10.0,NNW,19.6,27.6,N/A,,Mostly Cloudy,330,2011-12-15 16:53:00
11:08 AM,35.6,24.8,65,30.21,10.0,NW,19.6,27.6,N/A,,Scattered Clouds,320,2011-12-15 17:08:00
11:53 AM,36.0,24.1,62,30.22,10.0,NNW,13.8,23.0,N/A,,Scattered Clouds,340,2011-12-15 17:53:00
12:53 PM,35.1,24.1,64,30.25,10.0,NNW,11.5,-,N/A,,Scattered Clouds,330,2011-12-15 18:53:00
1:53 PM,37.9,24.1,57,30.25,10.0,WNW,9.2,-,N/A,,Mostly Cloudy,300,2011-12-15 19:53:00
2:53 PM,36.0,24.1,62,30.27,10.0,NW,10.4,-,N/A,,Mostly Cloudy,320,2011-12-15 20:53:00
3:53 PM,36.0,25.0,64,30.29,10.0,NW,8.1,-,N/A,,Mostly Cloudy,320,2011-12-15 21:53:00
4:53 PM,33.1,23.0,66,30.31,10.0,NNW,8.1,-,N/A,,Partly Cloudy,330,2011-12-15 22:53:00
5:53 PM,30.0,23.0,75,30.34,10.0,NNW,8.1,-,N/A,,Partly Cloudy,340,2011-12-15 23:53:00
6:53 PM,28.9,23.0,78,30.36,10.0,NNW,5.8,-,N/A,,Scattered Clouds,340,2011-12-16 00:53:00
7:53 PM,28.0,21.9,78,30.38,10.0,NNW,5.8,-,N/A,,Partly Cloudy,330,2011-12-16 01:53:00
8:53 PM,27.0,21.9,81,30.40,10.0,NNW,6.9,-,N/A,,Clear,330,2011-12-16 02:53:00
9:53 PM,26.1,21.9,84,30.40,10.0,NNW,5.8,-,N/A,,Clear,340,2011-12-16 03:53:00
10:53 PM,26.1,21.9,84,30.40,10.0,NNW,8.1,-,N/A,,Clear,340,2011-12-16 04:53:00
11:53 PM,25.0,21.0,85,30.40,10.0,NNW,8.1,-,N/A,,Clear,330,2011-12-16 05:53:00